Centerville, California
Current Conditions -  °F | °C
As of 11:53 PM on Thursday 27 Nov 2014 (Local Time) from KFAT Reporting Station
Haze Haze  
Wind Chill: 48°   Ceiling: Unl
Heat Index: 48°   Visibility: 5mi
Dew Point: 44°   Wind: 0mph
Humidity: 86%   Direction: NA
Pressure: 30.07"   Gusts: NA
Location:  36.8137°N, 119.374°W
Report Text: KFAT 280753Z 00000KT 5SM BR SCT200 09/07 A3007 RMK AO2 SLP182 T00890067 402220056
Loading
Personal Weather Stations






























Interactive Weather Map New forecast layout! Learn more

10-Day Weather Forecast

Advertisements
Track Severe Weather on mobile